createdAt,value
2022-10-12T00:01:04.037Z,2.47
2022-10-12T00:03:32.153Z,2.27
2022-10-12T00:06:12.273Z,1.70
2022-10-12T00:08:41.733Z,2.17
2022-10-12T00:11:14.792Z,1.90
2022-10-12T00:13:43.273Z,2.97
2022-10-12T00:16:13.491Z,1.93
2022-10-12T00:18:41.894Z,1.87
2022-10-12T00:21:11.711Z,1.80
2022-10-12T00:23:40.719Z,1.90
2022-10-12T00:26:13.074Z,2.07
2022-10-12T00:28:41.730Z,2.10
2022-10-12T00:31:11.425Z,1.77
2022-10-12T00:33:39.826Z,2.00
2022-10-12T00:36:15.942Z,1.93
2022-10-12T00:38:44.364Z,2.20
2022-10-12T00:41:15.179Z,2.27
2022-10-12T00:43:45.456Z,2.00
2022-10-12T00:46:17.981Z,2.17
2022-10-12T00:48:47.486Z,2.00
2022-10-12T00:51:17.036Z,2.00
2022-10-12T00:53:48.755Z,2.13
2022-10-12T00:56:22.581Z,2.13
2022-10-12T00:58:52.308Z,1.93
2022-10-12T01:01:20.652Z,2.20
2022-10-12T01:03:49.743Z,1.90
2022-10-12T01:06:18.387Z,2.37
2022-10-12T01:08:47.360Z,2.40
2022-10-12T01:11:15.496Z,2.23
2022-10-12T01:13:45.002Z,1.90
2022-10-12T01:16:20.556Z,1.73
2022-10-12T01:18:55.165Z,2.00
2022-10-12T01:21:24.973Z,1.90
2022-10-12T01:24:13.857Z,1.93
2022-10-12T01:27:15.162Z,2.07
2022-10-12T01:30:15.953Z,2.40
2022-10-12T01:33:10.706Z,2.30
2022-10-12T01:35:44.753Z,2.30
2022-10-12T01:38:25.573Z,1.80
2022-10-12T01:41:00.852Z,1.97
2022-10-12T01:43:35.480Z,1.93
2022-10-12T01:46:45.625Z,2.10
2022-10-12T01:49:16.700Z,2.00
2022-10-12T01:52:16.888Z,1.97
2022-10-12T01:55:11.898Z,2.20
2022-10-12T01:57:52.327Z,1.97
2022-10-12T02:00:21.454Z,2.30
2022-10-12T02:02:59.709Z,2.10
2022-10-12T02:05:37.609Z,2.10
2022-10-12T02:08:11.063Z,2.17
2022-10-12T02:10:43.799Z,2.40
2022-10-12T02:13:14.656Z,2.00
2022-10-12T02:15:44.854Z,2.07
2022-10-12T02:18:18.442Z,2.03
2022-10-12T02:20:49.948Z,2.47
2022-10-12T02:23:19.637Z,2.27
2022-10-12T02:25:48.615Z,2.13
2022-10-12T02:28:19.706Z,2.20
2022-10-12T02:30:53.639Z,2.27
2022-10-12T02:33:26.873Z,2.30
2022-10-12T02:36:01.885Z,2.50
2022-10-12T02:38:35.240Z,2.20
2022-10-12T02:41:06.905Z,2.57
2022-10-12T02:43:39.895Z,2.40
2022-10-12T02:46:11.171Z,2.33
2022-10-12T02:48:42.784Z,1.93
2022-10-12T02:51:12.388Z,2.03
2022-10-12T02:53:40.604Z,2.27
2022-10-12T02:56:12.729Z,2.20
2022-10-12T02:58:41.776Z,2.53
2022-10-12T03:01:09.896Z,2.00
2022-10-12T03:03:38.063Z,2.10
2022-10-12T03:06:08.433Z,2.10
2022-10-12T03:08:36.659Z,2.00
2022-10-12T03:11:05.327Z,2.47
2022-10-12T03:13:33.443Z,2.57
2022-10-12T03:16:05.112Z,2.17
2022-10-12T03:18:34.457Z,2.00
2022-10-12T03:21:02.894Z,2.30
2022-10-12T03:23:32.414Z,2.50
2022-10-12T03:26:00.688Z,2.23
2022-10-12T03:28:28.945Z,2.10
2022-10-12T03:30:57.632Z,2.07
2022-10-12T03:33:25.808Z,2.40
2022-10-12T03:35:54.229Z,2.10
2022-10-12T03:38:22.584Z,2.23
2022-10-12T03:40:52.370Z,2.03
2022-10-12T03:43:20.599Z,2.30
2022-10-12T03:45:48.866Z,3.00
2022-10-12T03:48:17.115Z,2.30
2022-10-12T03:50:50.222Z,2.67
2022-10-12T03:53:19.191Z,1.90
2022-10-12T03:55:47.565Z,2.37
2022-10-12T03:58:17.238Z,2.27
2022-10-12T04:00:45.402Z,2.37
2022-10-12T04:03:13.600Z,2.20
2022-10-12T04:05:41.710Z,2.30
2022-10-12T04:08:11.539Z,2.40
2022-10-12T04:10:39.582Z,2.40
2022-10-12T04:13:08.075Z,2.30
2022-10-12T04:15:37.909Z,2.17
2022-10-12T04:18:06.526Z,2.20
2022-10-12T04:20:34.692Z,2.23
2022-10-12T04:23:02.902Z,2.10
2022-10-12T04:25:31.057Z,2.37
2022-10-12T04:27:59.246Z,2.10
2022-10-12T04:30:27.302Z,2.40
2022-10-12T04:32:57.469Z,2.20
2022-10-12T04:35:25.666Z,2.33
2022-10-12T04:37:53.843Z,2.00
2022-10-12T04:40:21.917Z,2.20
2022-10-12T04:42:50.247Z,2.97
2022-10-12T04:45:18.831Z,2.40
2022-10-12T04:47:47.021Z,2.00
2022-10-12T04:50:16.725Z,2.57
2022-10-12T04:52:44.889Z,2.23
2022-10-12T04:55:13.164Z,2.40
2022-10-12T04:57:41.599Z,1.87
2022-10-12T05:00:11.353Z,1.90
2022-10-12T05:02:39.443Z,2.47
2022-10-12T05:05:08.021Z,2.50
2022-10-12T05:07:37.712Z,2.43
2022-10-12T05:10:06.654Z,2.70
2022-10-12T05:12:34.817Z,2.40
2022-10-12T05:15:03.025Z,2.50
2022-10-12T05:17:31.102Z,3.27
2022-10-12T05:19:59.181Z,2.50
2022-10-12T05:22:27.279Z,2.13
2022-10-12T05:24:56.707Z,2.53
2022-10-12T05:27:25.178Z,2.40
2022-10-12T05:29:53.278Z,2.10
2022-10-12T05:32:22.057Z,2.83
2022-10-12T05:34:50.696Z,2.87
2022-10-12T05:37:18.868Z,2.40
2022-10-12T05:39:46.975Z,2.30
2022-10-12T05:42:16.425Z,2.40
2022-10-12T05:44:44.688Z,2.37
2022-10-12T05:47:12.981Z,2.27
2022-10-12T05:49:41.036Z,2.23
2022-10-12T05:52:09.191Z,2.00
2022-10-12T05:54:37.299Z,2.20
2022-10-12T05:57:05.467Z,2.37
2022-10-12T05:59:34.894Z,2.30
2022-10-12T06:02:03.035Z,2.67
2022-10-12T06:04:31.163Z,2.40
2022-10-12T06:06:59.227Z,2.47
2022-10-12T06:09:27.369Z,2.80
2022-10-12T06:11:55.933Z,2.47
2022-10-12T06:14:24.025Z,2.47
2022-10-12T06:16:54.563Z,2.50
2022-10-12T06:19:22.918Z,2.37
2022-10-12T06:21:50.975Z,2.30
2022-10-12T06:24:19.063Z,3.30
2022-10-12T06:26:47.127Z,3.07
2022-10-12T06:29:15.175Z,2.20
2022-10-12T06:31:45.559Z,2.80
2022-10-12T06:34:18.673Z,2.47
2022-10-12T06:36:46.754Z,2.57
2022-10-12T06:39:14.874Z,2.20
2022-10-12T06:41:42.931Z,2.73
2022-10-12T06:44:11.094Z,2.40
2022-10-12T06:46:39.218Z,2.40
2022-10-12T06:49:07.304Z,2.30
2022-10-12T06:51:36.766Z,2.43
2022-10-12T06:54:04.989Z,2.70
2022-10-12T06:56:33.188Z,2.50
2022-10-12T06:59:01.235Z,2.70
2022-10-12T07:01:29.355Z,2.80
2022-10-12T07:04:00.659Z,3.10
2022-10-12T07:06:29.240Z,2.97
2022-10-12T07:08:58.913Z,3.17
2022-10-12T07:11:27.084Z,3.13
2022-10-12T07:13:55.179Z,3.13
2022-10-12T07:16:23.246Z,3.37
2022-10-12T07:18:51.334Z,4.07
2022-10-12T07:21:19.471Z,3.83
2022-10-12T07:23:47.735Z,3.30
2022-10-12T07:26:17.367Z,3.13
2022-10-12T07:28:45.597Z,2.90
2022-10-12T07:31:13.700Z,3.30
2022-10-12T07:33:41.887Z,3.60
2022-10-12T07:36:14.350Z,3.30
2022-10-12T07:38:45.451Z,3.53
2022-10-12T07:41:14.618Z,3.63
2022-10-12T07:43:44.741Z,3.33
2022-10-12T07:46:13.164Z,4.10
2022-10-12T07:48:44.542Z,3.37
2022-10-12T07:51:15.535Z,3.50
2022-10-12T07:53:43.598Z,3.47
2022-10-12T07:56:15.998Z,3.10
2022-10-12T07:58:50.009Z,3.27
2022-10-12T08:01:19.132Z,2.63
2022-10-12T08:03:47.248Z,3.07
2022-10-12T08:06:17.766Z,2.87
2022-10-12T08:08:46.355Z,2.97
2022-10-12T08:11:15.374Z,3.23
2022-10-12T08:13:45.371Z,3.70
2022-10-12T08:16:15.657Z,3.60
2022-10-12T08:18:44.430Z,3.60
2022-10-12T08:21:15.373Z,4.00
2022-10-12T08:23:44.608Z,3.70
2022-10-12T08:26:13.639Z,3.67
2022-10-12T08:28:42.072Z,3.50
2022-10-12T08:31:14.018Z,3.43
2022-10-12T08:33:42.130Z,3.10
2022-10-12T08:36:11.975Z,3.60
2022-10-12T08:38:40.355Z,3.50
2022-10-12T08:41:20.533Z,3.47
2022-10-12T08:44:02.033Z,3.63
2022-10-12T08:46:32.382Z,3.53
2022-10-12T08:49:05.191Z,3.40
2022-10-12T08:51:37.722Z,3.70
2022-10-12T08:54:08.929Z,3.83
2022-10-12T08:56:39.622Z,3.40
2022-10-12T08:59:13.009Z,3.10
2022-10-12T09:01:56.852Z,3.33
2022-10-12T09:04:40.389Z,3.30
2022-10-12T09:07:14.419Z,4.07
2022-10-12T09:09:54.309Z,4.00
2022-10-12T09:12:33.255Z,4.03
2022-10-12T09:15:04.902Z,3.70
2022-10-12T09:17:41.025Z,3.60
2022-10-12T09:20:18.950Z,3.43
2022-10-12T09:22:50.434Z,4.23
2022-10-12T09:25:20.707Z,4.50
2022-10-12T09:27:48.838Z,4.67
2022-10-12T09:30:19.535Z,5.17
2022-10-12T09:33:10.342Z,4.40
2022-10-12T09:35:38.745Z,4.73
2022-10-12T09:38:09.236Z,4.80
2022-10-12T09:40:37.508Z,4.40
2022-10-12T09:43:06.591Z,5.13
2022-10-12T09:45:36.384Z,4.90
2022-10-12T09:48:14.653Z,5.27
2022-10-12T09:50:45.577Z,4.93
2022-10-12T09:53:20.795Z,4.40
2022-10-12T09:55:57.918Z,4.47
2022-10-12T09:58:27.415Z,4.10
2022-10-12T10:01:23.680Z,4.87
2022-10-12T10:04:09.929Z,4.77
2022-10-12T10:06:38.806Z,4.93
2022-10-12T10:09:07.151Z,4.87
2022-10-12T10:11:35.761Z,5.13
2022-10-12T10:14:03.986Z,5.83
2022-10-12T10:16:32.401Z,5.30
2022-10-12T10:19:03.115Z,5.13
2022-10-12T10:21:34.727Z,4.70
2022-10-12T10:24:04.898Z,4.73
2022-10-12T10:26:53.247Z,4.90
2022-10-12T10:29:34.143Z,4.80
2022-10-12T10:32:13.164Z,4.77
2022-10-12T10:34:44.143Z,5.20
2022-10-12T10:37:20.443Z,4.37
2022-10-12T10:39:50.913Z,4.90
2022-10-12T10:42:21.557Z,4.67
2022-10-12T10:44:52.442Z,4.57
2022-10-12T10:47:20.873Z,4.87
2022-10-12T10:49:55.557Z,4.53
2022-10-12T10:52:26.270Z,4.67
2022-10-12T10:55:16.920Z,4.33
2022-10-12T10:57:49.234Z,4.30
2022-10-12T11:00:38.100Z,4.90
2022-10-12T11:03:14.166Z,4.70
2022-10-12T11:05:47.820Z,4.60
2022-10-12T11:08:21.659Z,4.47
2022-10-12T11:10:54.593Z,4.63
2022-10-12T11:13:27.189Z,4.47
2022-10-12T11:16:01.072Z,4.67
2022-10-12T11:18:35.861Z,4.83
2022-10-12T11:21:10.156Z,4.80
2022-10-12T11:23:45.436Z,4.60
2022-10-12T11:26:25.494Z,4.77
2022-10-12T11:28:55.964Z,4.97
2022-10-12T11:31:29.791Z,4.70
2022-10-12T11:34:03.298Z,4.80
2022-10-12T11:36:35.916Z,4.60
2022-10-12T11:39:07.525Z,4.90
2022-10-12T11:42:03.211Z,5.43
2022-10-12T11:44:41.516Z,6.17
2022-10-12T11:47:18.098Z,5.73
2022-10-12T11:49:53.035Z,6.23
2022-10-12T11:52:28.728Z,5.60
2022-10-12T11:55:02.104Z,5.97
2022-10-12T11:57:35.081Z,5.87
2022-10-12T12:00:06.877Z,6.20
2022-10-12T12:02:41.282Z,6.20
2022-10-12T12:05:16.576Z,6.80
2022-10-12T12:07:49.026Z,6.67
2022-10-12T12:11:00.047Z,6.70
2022-10-12T12:13:28.616Z,6.17
2022-10-12T12:16:27.807Z,6.83
2022-10-12T12:19:19.183Z,5.80
2022-10-12T12:22:28.745Z,5.90
2022-10-12T12:25:17.422Z,6.87
2022-10-12T12:27:48.202Z,6.00
2022-10-12T12:30:30.227Z,5.40
2022-10-12T12:33:00.558Z,5.40
2022-10-12T12:35:34.192Z,6.10
2022-10-12T12:38:09.342Z,6.30
2022-10-12T12:40:40.246Z,5.93
2022-10-12T12:43:21.679Z,5.03
2022-10-12T12:45:58.713Z,5.03
2022-10-12T12:49:01.994Z,4.93
2022-10-12T12:51:40.180Z,5.27
2022-10-12T12:54:16.141Z,6.97
2022-10-12T12:57:19.902Z,5.70
2022-10-12T13:00:17.213Z,5.53
2022-10-12T13:03:11.247Z,5.43
2022-10-12T13:06:15.134Z,5.80
2022-10-12T13:09:03.568Z,5.27
2022-10-12T13:11:48.639Z,4.80
2022-10-12T13:14:43.386Z,5.43
2022-10-12T13:17:32.260Z,5.40
2022-10-12T13:20:03.286Z,6.77
2022-10-12T13:22:35.147Z,5.23
2022-10-12T13:25:06.009Z,5.20
2022-10-12T13:27:42.307Z,5.77
2022-10-12T13:30:20.633Z,5.47
2022-10-12T13:32:54.766Z,6.40
2022-10-12T13:35:31.778Z,5.27
2022-10-12T13:38:06.079Z,5.67
2022-10-12T13:40:39.845Z,6.77
2022-10-12T13:43:26.749Z,6.87
2022-10-12T13:45:56.837Z,6.33
2022-10-12T13:48:53.756Z,5.97
2022-10-12T13:51:24.644Z,5.87
2022-10-12T13:53:52.841Z,6.07
2022-10-12T13:56:24.323Z,6.67
2022-10-12T13:58:55.392Z,6.00
2022-10-12T14:01:25.242Z,6.27
2022-10-12T14:03:53.604Z,5.67
2022-10-12T14:06:31.988Z,5.63
2022-10-12T14:09:19.484Z,6.77
2022-10-12T14:11:54.377Z,6.43
2022-10-12T14:14:29.733Z,5.37
2022-10-12T14:16:59.262Z,6.50
2022-10-12T14:19:45.040Z,6.00
2022-10-12T14:22:14.797Z,6.03
2022-10-12T14:24:43.455Z,6.67
2022-10-12T14:27:24.999Z,6.33
2022-10-12T14:29:57.845Z,6.27
2022-10-12T14:32:44.124Z,6.87
2022-10-12T14:35:22.920Z,7.07
2022-10-12T14:37:53.286Z,7.27
2022-10-12T14:40:37.204Z,8.00
2022-10-12T14:43:09.565Z,7.00
2022-10-12T14:45:38.197Z,7.13
2022-10-12T14:48:14.631Z,6.67
2022-10-12T14:50:44.352Z,7.20
2022-10-12T14:53:14.181Z,6.60
2022-10-12T14:55:43.460Z,7.33
2022-10-12T14:58:16.963Z,6.20
2022-10-12T15:00:45.486Z,6.43
2022-10-12T15:03:17.930Z,6.70
2022-10-12T15:05:46.084Z,6.60
2022-10-12T15:08:14.227Z,6.27
2022-10-12T15:10:42.298Z,6.57
2022-10-12T15:13:13.430Z,7.20
2022-10-12T15:15:44.046Z,7.33
2022-10-12T15:18:12.186Z,7.57
2022-10-12T15:20:46.763Z,7.60
2022-10-12T15:23:17.423Z,7.90
2022-10-12T15:25:48.943Z,6.57
2022-10-12T15:28:17.312Z,7.10
2022-10-12T15:31:11.750Z,7.13
2022-10-12T15:33:33.950Z,6.73
2022-10-12T15:36:03.555Z,6.43
2022-10-12T15:38:31.907Z,6.53
2022-10-12T15:41:00.130Z,6.60
2022-10-12T15:43:28.779Z,6.10
2022-10-12T15:45:57.526Z,7.07
2022-10-12T15:48:27.818Z,6.87
2022-10-12T15:50:56.005Z,7.07
2022-10-12T15:53:27.338Z,5.90
2022-10-12T15:55:56.199Z,6.53
2022-10-12T15:58:24.714Z,8.63
2022-10-12T16:00:52.899Z,6.57
2022-10-12T16:03:26.068Z,7.07
2022-10-12T16:05:54.958Z,6.97
2022-10-12T16:08:23.129Z,5.63
2022-10-12T16:10:53.115Z,6.03
2022-10-12T16:13:21.563Z,5.90
2022-10-12T16:15:49.716Z,5.90
2022-10-12T16:18:18.051Z,5.80
2022-10-12T16:20:51.119Z,5.80
2022-10-12T16:23:23.581Z,6.07
2022-10-12T16:25:53.335Z,6.33
2022-10-12T16:28:22.463Z,5.73
2022-10-12T16:30:50.966Z,6.13
2022-10-12T16:33:19.661Z,5.90
2022-10-12T16:35:48.218Z,6.60
2022-10-12T16:38:16.342Z,6.30
2022-10-12T16:40:44.438Z,5.20
2022-10-12T16:43:13.972Z,5.87
2022-10-12T16:45:42.115Z,5.40
2022-10-12T16:48:10.607Z,6.03
2022-10-12T16:50:40.953Z,5.57
2022-10-12T16:53:09.695Z,5.23
2022-10-12T16:55:41.026Z,5.77
2022-10-12T16:58:09.162Z,5.37
2022-10-12T17:00:40.288Z,5.70
2022-10-12T17:03:10.750Z,5.30
2022-10-12T17:05:39.000Z,6.23
2022-10-12T17:08:11.251Z,5.93
2022-10-12T17:10:43.815Z,6.00
2022-10-12T17:13:13.502Z,5.00
2022-10-12T17:15:44.023Z,5.33
2022-10-12T17:18:12.217Z,5.63
2022-10-12T17:20:40.293Z,6.20
2022-10-12T17:23:08.366Z,5.43
2022-10-12T17:25:36.513Z,5.63
2022-10-12T17:28:04.722Z,6.50
2022-10-12T17:30:33.401Z,5.67
2022-10-12T17:33:03.923Z,6.20
2022-10-12T17:35:32.167Z,6.10
2022-10-12T17:38:00.238Z,6.67
2022-10-12T17:40:28.438Z,6.03
2022-10-12T17:42:56.557Z,6.23
2022-10-12T17:45:24.989Z,6.10
2022-10-12T17:47:53.072Z,6.30
2022-10-12T17:50:22.550Z,6.20
2022-10-12T17:52:50.753Z,6.90
2022-10-12T17:55:43.389Z,6.37
2022-10-12T17:58:07.158Z,5.87
2022-10-12T18:00:36.463Z,7.13
2022-10-12T18:03:04.878Z,6.40
2022-10-12T18:05:35.566Z,6.70
2022-10-12T18:08:03.727Z,7.07
2022-10-12T18:10:31.821Z,6.30
2022-10-12T18:12:59.853Z,6.70
2022-10-12T18:15:27.994Z,6.90
2022-10-12T18:17:56.119Z,7.00
2022-10-12T18:20:24.246Z,6.50
2022-10-12T18:22:53.681Z,6.80
2022-10-12T18:25:21.902Z,6.90
2022-10-12T18:27:50.298Z,6.93
2022-10-12T18:30:18.533Z,7.40
2022-10-12T18:32:46.688Z,7.47
2022-10-12T18:35:15.119Z,7.80
2022-10-12T18:37:43.195Z,8.03
2022-10-12T18:40:13.418Z,7.87
2022-10-12T18:42:41.505Z,7.27
2022-10-12T18:45:10.335Z,7.90
2022-10-12T18:47:38.675Z,6.97
2022-10-12T18:50:08.238Z,7.57
2022-10-12T18:52:36.383Z,8.63
2022-10-12T18:55:04.747Z,7.87
2022-10-12T18:57:39.048Z,8.03
2022-10-12T19:00:10.528Z,8.23
2022-10-12T19:02:39.078Z,9.33
2022-10-12T19:05:07.656Z,8.80
2022-10-12T19:07:36.424Z,9.80
2022-10-12T19:10:07.124Z,9.17
2022-10-12T19:12:36.760Z,8.73
2022-10-12T19:15:05.574Z,8.23
2022-10-12T19:17:34.209Z,8.20
2022-10-12T19:20:03.308Z,8.17
2022-10-12T19:22:31.454Z,7.93
2022-10-12T19:24:59.540Z,7.83
2022-10-12T19:27:27.859Z,7.53
2022-10-12T19:29:57.324Z,8.27
2022-10-12T19:32:25.463Z,6.90
2022-10-12T19:34:53.716Z,7.23
2022-10-12T19:37:21.818Z,7.60
2022-10-12T19:39:50.004Z,9.20
2022-10-12T19:42:18.374Z,8.17
2022-10-12T19:44:46.603Z,10.00
2022-10-12T19:47:16.046Z,8.93
2022-10-12T19:49:45.437Z,9.27
2022-10-12T19:52:13.813Z,11.03
2022-10-12T19:54:42.562Z,10.47
2022-10-12T19:57:18.664Z,9.60
2022-10-12T19:59:54.366Z,8.13
2022-10-12T20:02:23.881Z,8.73
2022-10-12T20:04:54.566Z,8.73
2022-10-12T20:07:22.677Z,8.87
2022-10-12T20:09:50.729Z,11.50
2022-10-12T20:12:19.091Z,11.10
2022-10-12T20:14:47.647Z,11.83
2022-10-12T20:17:16.190Z,10.93
2022-10-12T20:19:46.202Z,12.23
2022-10-12T20:22:15.070Z,11.80
2022-10-12T20:24:43.466Z,11.53
2022-10-12T20:27:11.867Z,13.10
2022-10-12T20:29:40.641Z,13.83
2022-10-12T20:32:09.334Z,11.50
2022-10-12T20:34:37.654Z,12.10
2022-10-12T20:37:07.429Z,12.20
2022-10-12T20:39:35.966Z,14.07
2022-10-12T20:42:04.820Z,13.63
2022-10-12T20:44:33.407Z,13.77
2022-10-12T20:47:01.545Z,15.63
2022-10-12T20:49:30.018Z,16.00
2022-10-12T20:51:58.517Z,16.43
2022-10-12T20:54:29.751Z,16.50
2022-10-12T20:56:58.576Z,16.53
2022-10-12T20:59:26.862Z,15.70
2022-10-12T21:01:55.282Z,15.50
2022-10-12T21:04:25.357Z,19.00
2022-10-12T21:06:54.387Z,16.90
2022-10-12T21:09:22.880Z,16.87
2022-10-12T21:11:52.686Z,15.70
2022-10-12T21:14:25.442Z,15.37
2022-10-12T21:16:54.998Z,15.93
2022-10-12T21:19:23.973Z,17.20
2022-10-12T21:21:52.166Z,17.03
2022-10-12T21:24:20.913Z,19.57
2022-10-12T21:26:51.282Z,18.50
2022-10-12T21:29:21.563Z,16.50
2022-10-12T21:31:50.213Z,15.80
2022-10-12T21:34:18.515Z,16.33
2022-10-12T21:36:46.818Z,14.90
2022-10-12T21:39:17.456Z,13.47
2022-10-12T21:41:46.029Z,15.80
2022-10-12T21:44:14.771Z,15.30
2022-10-12T21:46:44.640Z,14.07
2022-10-12T21:49:13.092Z,13.63
2022-10-12T21:51:41.300Z,13.30
2022-10-12T21:54:10.174Z,12.70
2022-10-12T21:56:39.530Z,13.70
2022-10-12T21:59:08.362Z,12.67
2022-10-12T22:01:38.708Z,12.87
2022-10-12T22:04:12.857Z,12.30
2022-10-12T22:06:41.474Z,13.17
2022-10-12T22:09:12.717Z,12.33
2022-10-12T22:11:41.438Z,11.83
2022-10-12T22:14:11.466Z,12.73
2022-10-12T22:16:39.679Z,12.00
2022-10-12T22:19:14.209Z,13.07
2022-10-12T22:21:44.054Z,13.07
2022-10-12T22:24:12.303Z,13.27
2022-10-12T22:26:40.898Z,11.57
2022-10-12T22:29:10.462Z,12.20
2022-10-12T22:31:41.649Z,11.80
2022-10-12T22:34:11.754Z,9.37
2022-10-12T22:36:40.715Z,10.30
2022-10-12T22:39:08.902Z,9.00
2022-10-12T22:41:37.078Z,9.27
2022-10-12T22:44:05.241Z,9.10
2022-10-12T22:46:33.445Z,8.20
2022-10-12T22:49:02.781Z,8.67
2022-10-12T22:51:33.660Z,7.90
2022-10-12T22:54:03.561Z,8.27
2022-10-12T22:56:32.019Z,7.70
2022-10-12T22:59:01.822Z,6.73
2022-10-12T23:01:30.718Z,7.20
2022-10-12T23:03:58.853Z,6.93
2022-10-12T23:06:27.523Z,8.73
2022-10-12T23:08:57.253Z,8.00
2022-10-12T23:11:27.574Z,7.37
2022-10-12T23:13:56.190Z,8.53
2022-10-12T23:16:26.315Z,8.60
2022-10-12T23:18:58.945Z,7.87
2022-10-12T23:21:28.331Z,8.77
2022-10-12T23:23:59.101Z,7.47
2022-10-12T23:26:29.295Z,8.87
2022-10-12T23:28:57.734Z,8.63
2022-10-12T23:31:27.710Z,8.93
2022-10-12T23:33:56.650Z,9.20
2022-10-12T23:36:25.747Z,8.90
2022-10-12T23:38:55.049Z,9.33
2022-10-12T23:41:24.603Z,9.63
2022-10-12T23:43:52.700Z,10.53
2022-10-12T23:46:20.826Z,10.33
2022-10-12T23:48:48.941Z,9.10
2022-10-12T23:51:17.050Z,10.47
2022-10-12T23:53:45.182Z,10.03
2022-10-12T23:56:13.509Z,9.50
2022-10-12T23:58:43.182Z,9.57
